Time;durP1;ratioP1;P1;durP2;ratioP2;P2;SDS_P1;SDS_P2;PMS_P1;PMS_P2;Temp;Humidity;BMP_temperature;BMP_pressure;BME280_temperature;BME280_humidity;BME280_pressure;Samples;Min_cycle;Max_cycle;Signal;HPM_P1;HPM_P2
2024/03/14 00:01:09;;;;;;;2.65;1.40;;;;;;;;;;5042148;28;20048;-61
2024/03/14 00:03:38;;;;;;;1.60;1.38;;;;;;;;;;5052427;28;20472;-61
2024/03/14 00:06:06;;;;;;;1.30;1.20;;;;;;;;;;5053697;28;20057;-62
2024/03/14 00:08:35;;;;;;;1.55;1.42;;;;;;;;;;5052326;28;20080;-62
2024/03/14 00:11:05;;;;;;;1.42;1.30;;;;;;;;;;5044064;28;20110;-63
2024/03/14 00:13:34;;;;;;;1.30;1.20;;;;;;;;;;5049836;28;20099;-63
2024/03/14 00:16:03;;;;;;;2.33;1.65;;;;;;;;;;5043504;28;20053;-61
2024/03/14 00:18:32;;;;;;;1.33;1.20;;;;;;;;;;5053850;28;20563;-63
2024/03/14 00:21:09;;;;;;;1.50;1.40;;;;;;;;;;5047709;28;20477;-61
2024/03/14 00:23:39;;;;;;;1.30;1.20;;;;;;;;;;5046950;28;20790;-58
2024/03/14 00:26:08;;;;;;;1.42;1.30;;;;;;;;;;5045558;28;20513;-61
2024/03/14 00:28:39;;;;;;;1.85;1.40;;;;;;;;;;5051269;28;20066;-62
2024/03/14 00:31:07;;;;;;;1.65;1.38;;;;;;;;;;5042888;28;20052;-62
2024/03/14 00:33:36;;;;;;;1.52;1.42;;;;;;;;;;5053999;28;20051;-61
2024/03/14 00:36:05;;;;;;;2.05;1.73;;;;;;;;;;5044570;28;20162;-66
2024/03/14 00:38:33;;;;;;;1.60;1.48;;;;;;;;;;5055141;28;20079;-61
2024/03/14 00:41:03;;;;;;;2.00;1.67;;;;;;;;;;5065971;28;20386;-63
2024/03/14 00:43:33;;;;;;;1.83;1.35;;;;;;;;;;5072255;28;21588;-62
2024/03/14 00:46:01;;;;;;;1.77;1.50;;;;;;;;;;5061123;28;20051;-62
2024/03/14 00:48:29;;;;;;;1.80;1.52;;;;;;;;;;5074866;28;20036;-61
2024/03/14 00:50:58;;;;;;;1.65;1.30;;;;;;;;;;5051219;28;20508;-61
2024/03/14 00:53:28;;;;;;;1.83;1.40;;;;;;;;;;5044326;28;20045;-62
2024/03/14 00:55:58;;;;;;;3.75;1.45;;;;;;;;;;5052286;28;20048;-62
2024/03/14 00:58:28;;;;;;;1.65;1.33;;;;;;;;;;5052487;28;20036;-63
2024/03/14 01:00:57;;;;;;;2.05;1.40;;;;;;;;;;5070234;28;20051;-61
2024/03/14 01:03:26;;;;;;;2.53;1.70;;;;;;;;;;5067226;28;20053;-61
2024/03/14 01:05:57;;;;;;;2.03;1.50;;;;;;;;;;5069576;28;20041;-60
2024/03/14 01:08:26;;;;;;;1.63;1.48;;;;;;;;;;5064545;28;20047;-62
2024/03/14 01:10:55;;;;;;;1.70;1.50;;;;;;;;;;5075031;28;20056;-61
2024/03/14 01:13:25;;;;;;;1.58;1.45;;;;;;;;;;5068887;28;20060;-60
2024/03/14 01:15:54;;;;;;;1.48;1.30;;;;;;;;;;5066854;28;20044;-62
2024/03/14 01:18:24;;;;;;;1.52;1.20;;;;;;;;;;5066807;28;20482;-61
2024/03/14 01:20:53;;;;;;;1.42;1.33;;;;;;;;;;5064790;28;20041;-63
2024/03/14 01:23:22;;;;;;;3.13;1.30;;;;;;;;;;5062238;28;20052;-61
2024/03/14 01:25:50;;;;;;;1.40;1.30;;;;;;;;;;5061479;28;20322;-61
2024/03/14 01:28:19;;;;;;;1.38;1.27;;;;;;;;;;5064459;28;20119;-60
2024/03/14 01:30:48;;;;;;;1.45;1.20;;;;;;;;;;5059936;28;20045;-61
2024/03/14 01:33:16;;;;;;;1.75;1.33;;;;;;;;;;5068205;28;20046;-62
2024/03/14 01:35:45;;;;;;;5.70;1.40;;;;;;;;;;5072064;28;20041;-62
2024/03/14 01:38:14;;;;;;;2.08;1.20;;;;;;;;;;5065311;28;20106;-62
2024/03/14 01:40:43;;;;;;;1.65;1.27;;;;;;;;;;5072264;28;20106;-61
2024/03/14 01:43:11;;;;;;;1.42;1.13;;;;;;;;;;5072143;28;20492;-61
2024/03/14 01:45:40;;;;;;;1.50;1.25;;;;;;;;;;5065491;28;20088;-62
2024/03/14 01:48:08;;;;;;;1.20;1.10;;;;;;;;;;5072583;28;20079;-61
2024/03/14 01:50:37;;;;;;;1.27;1.17;;;;;;;;;;5067157;28;20074;-60
2024/03/14 01:53:05;;;;;;;1.20;1.10;;;;;;;;;;5078627;28;20048;-60
2024/03/14 01:55:34;;;;;;;1.63;1.23;;;;;;;;;;5062061;28;20456;-62
2024/03/14 01:58:02;;;;;;;1.10;1.00;;;;;;;;;;5066996;28;20052;-62
2024/03/14 02:00:33;;;;;;;2.78;1.02;;;;;;;;;;5068124;28;20044;-62
2024/03/14 02:03:01;;;;;;;1.23;1.00;;;;;;;;;;5072897;28;20037;-60
2024/03/14 02:05:30;;;;;;;1.10;1.00;;;;;;;;;;5068249;28;20040;-60
2024/03/14 02:07:58;;;;;;;1.27;1.00;;;;;;;;;;5068689;28;20519;-63
2024/03/14 02:10:28;;;;;;;1.08;0.98;;;;;;;;;;5054273;28;20049;-60
2024/03/14 02:12:57;;;;;;;1.35;1.00;;;;;;;;;;5051971;28;20364;-60
2024/03/14 02:15:25;;;;;;;1.20;1.10;;;;;;;;;;5045008;28;20116;-60
2024/03/14 02:17:53;;;;;;;2.10;1.00;;;;;;;;;;5045763;28;20049;-60
2024/03/14 02:20:23;;;;;;;1.08;0.93;;;;;;;;;;5043506;28;20047;-61
2024/03/14 02:22:52;;;;;;;1.17;1.08;;;;;;;;;;5045243;28;20051;-60
2024/03/14 02:25:20;;;;;;;0.70;0.70;;;;;;;;;;5048868;28;20303;-60
2024/03/14 02:27:50;;;;;;;1.10;1.00;;;;;;;;;;5054430;28;20064;-61
2024/03/14 02:30:18;;;;;;;0.93;0.88;;;;;;;;;;5070849;28;20090;-60
2024/03/14 02:32:47;;;;;;;0.73;0.73;;;;;;;;;;5068141;28;20583;-61
2024/03/14 02:35:16;;;;;;;0.80;0.80;;;;;;;;;;5067118;28;20098;-62
2024/03/14 02:37:45;;;;;;;0.52;0.52;;;;;;;;;;5069115;28;20084;-62
2024/03/14 02:40:13;;;;;;;0.73;0.70;;;;;;;;;;5066636;28;20044;-61
2024/03/14 02:42:41;;;;;;;0.80;0.80;;;;;;;;;;5071356;28;20048;-61
2024/03/14 02:45:10;;;;;;;0.80;0.70;;;;;;;;;;5068378;28;20106;-61
2024/03/14 02:47:38;;;;;;;0.60;0.60;;;;;;;;;;5075257;28;20094;-60
2024/03/14 02:50:09;;;;;;;0.70;0.70;;;;;;;;;;5054149;28;20041;-61
2024/03/14 02:52:38;;;;;;;0.88;0.82;;;;;;;;;;5049699;28;20494;-62
2024/03/14 02:55:08;;;;;;;0.70;0.70;;;;;;;;;;5048779;28;20068;-61
2024/03/14 02:57:36;;;;;;;0.90;0.80;;;;;;;;;;5048327;28;20044;-60
2024/03/14 03:00:14;;;;;;;0.80;0.77;;;;;;;;;;5041993;28;20573;-60
2024/03/14 03:02:42;;;;;;;1.00;0.90;;;;;;;;;;5060803;28;20110;-61
2024/03/14 03:05:11;;;;;;;0.70;0.70;;;;;;;;;;5063250;28;20053;-60
2024/03/14 03:07:43;;;;;;;0.95;0.80;;;;;;;;;;5062625;28;20068;-60
2024/03/14 03:10:12;;;;;;;0.98;0.70;;;;;;;;;;5059545;28;20049;-60
2024/03/14 03:12:41;;;;;;;0.70;0.70;;;;;;;;;;5062827;28;20044;-62
2024/03/14 03:15:10;;;;;;;1.15;0.88;;;;;;;;;;5061603;28;20502;-61
2024/03/14 03:17:40;;;;;;;1.13;0.80;;;;;;;;;;5061375;28;20053;-60
2024/03/14 03:20:10;;;;;;;0.82;0.82;;;;;;;;;;5061137;28;20054;-60
2024/03/14 03:25:26;;;;;;;1.00;0.77;;;;;;;;;;5048440;28;20048;-61
2024/03/14 03:27:53;;;;;;;1.05;0.80;;;;;;;;;;5037356;28;20049;-61
2024/03/14 03:30:23;;;;;;;1.02;0.93;;;;;;;;;;5044426;28;20060;-61
2024/03/14 03:32:51;;;;;;;1.30;1.00;;;;;;;;;;5055060;28;20083;-61
2024/03/14 03:35:21;;;;;;;0.85;0.85;;;;;;;;;;5039574;28;20049;-61
2024/03/14 03:37:54;;;;;;;0.90;0.90;;;;;;;;;;5054812;28;20480;-63
2024/03/14 03:40:22;;;;;;;0.85;0.82;;;;;;;;;;5064720;28;20496;-60
2024/03/14 03:42:52;;;;;;;2.20;0.80;;;;;;;;;;5077563;28;20052;-59
2024/03/14 03:45:21;;;;;;;1.17;0.80;;;;;;;;;;5074252;28;20505;-60
2024/03/14 03:47:52;;;;;;;0.90;0.68;;;;;;;;;;5073854;28;20117;-60
2024/03/14 03:50:20;;;;;;;0.70;0.70;;;;;;;;;;5063748;28;20049;-61
2024/03/14 03:52:48;;;;;;;1.45;0.80;;;;;;;;;;5063554;28;20076;-60
2024/03/14 03:55:17;;;;;;;0.85;0.80;;;;;;;;;;5064879;28;20041;-60
2024/03/14 03:57:45;;;;;;;1.00;0.80;;;;;;;;;;5072332;28;20075;-61
2024/03/14 04:02:59;;;;;;;1.10;1.00;;;;;;;;;;5074631;28;20044;-61
2024/03/14 04:05:28;;;;;;;0.95;0.85;;;;;;;;;;5061894;28;20462;-59
2024/03/14 04:07:56;;;;;;;1.52;1.00;;;;;;;;;;5068903;28;20489;-61
2024/03/14 04:10:25;;;;;;;0.80;0.80;;;;;;;;;;5037495;28;20052;-61
2024/03/14 04:12:53;;;;;;;0.93;0.85;;;;;;;;;;5043054;28;20087;-62
2024/03/14 04:15:22;;;;;;;1.30;1.20;;;;;;;;;;5044834;28;20146;-61
2024/03/14 04:17:50;;;;;;;1.17;1.08;;;;;;;;;;5045699;28;20053;-60
2024/03/14 04:20:19;;;;;;;1.13;0.90;;;;;;;;;;5040685;28;20044;-60
2024/03/14 04:22:48;;;;;;;1.00;0.90;;;;;;;;;;5046932;28;20097;-62
2024/03/14 04:25:17;;;;;;;2.22;1.05;;;;;;;;;;5051274;28;20282;-62
2024/03/14 04:27:46;;;;;;;1.23;1.00;;;;;;;;;;5030969;28;20053;-61
2024/03/14 04:30:15;;;;;;;1.75;1.00;;;;;;;;;;5039359;28;20376;-60
2024/03/14 04:32:45;;;;;;;0.70;0.70;;;;;;;;;;5047359;28;20136;-60
2024/03/14 04:35:15;;;;;;;0.98;0.88;;;;;;;;;;5049964;28;20073;-62
2024/03/14 04:37:43;;;;;;;0.80;0.80;;;;;;;;;;5058060;28;20409;-61
2024/03/14 04:40:13;;;;;;;1.50;1.00;;;;;;;;;;5043842;28;20095;-60
2024/03/14 04:42:41;;;;;;;1.85;0.80;;;;;;;;;;5054670;28;20053;-62
2024/03/14 04:45:10;;;;;;;0.77;0.77;;;;;;;;;;5039050;28;20136;-60
2024/03/14 04:47:39;;;;;;;0.80;0.80;;;;;;;;;;5057268;28;20045;-60
2024/03/14 04:50:09;;;;;;;0.68;0.68;;;;;;;;;;5045480;28;20490;-60
2024/03/14 04:52:37;;;;;;;1.10;0.90;;;;;;;;;;5056384;28;20048;-60
2024/03/14 04:55:08;;;;;;;0.90;0.90;;;;;;;;;;5050445;28;20157;-60
2024/03/14 04:57:36;;;;;;;1.25;0.93;;;;;;;;;;5052858;28;20041;-60
2024/03/14 05:00:11;;;;;;;1.42;1.00;;;;;;;;;;5050211;28;20045;-63
2024/03/14 05:02:40;;;;;;;0.82;0.80;;;;;;;;;;5056599;28;20049;-61
2024/03/14 05:05:09;;;;;;;0.98;0.90;;;;;;;;;;5047174;28;20080;-60
2024/03/14 05:07:38;;;;;;;1.05;0.98;;;;;;;;;;5060776;28;20069;-60
2024/03/14 05:10:07;;;;;;;1.15;1.00;;;;;;;;;;5052701;28;20102;-62
2024/03/14 05:12:36;;;;;;;1.23;1.02;;;;;;;;;;5044100;28;20041;-60
2024/03/14 05:15:07;;;;;;;3.40;1.45;;;;;;;;;;5053196;28;20081;-64
2024/03/14 05:17:36;;;;;;;0.98;0.90;;;;;;;;;;5049695;28;20044;-61
2024/03/14 05:20:06;;;;;;;1.63;1.00;;;;;;;;;;5037882;28;20052;-61
2024/03/14 05:22:34;;;;;;;1.13;1.02;;;;;;;;;;5048012;28;20052;-61
2024/03/14 05:25:06;;;;;;;0.93;0.82;;;;;;;;;;5056957;28;20045;-62
2024/03/14 05:27:35;;;;;;;1.42;1.10;;;;;;;;;;5051461;28;20660;-61
2024/03/14 05:30:03;;;;;;;1.25;1.00;;;;;;;;;;5042108;28;20041;-60
2024/03/14 05:32:32;;;;;;;1.52;1.20;;;;;;;;;;5038631;28;20041;-59
2024/03/14 05:35:02;;;;;;;1.13;1.00;;;;;;;;;;5052037;28;20143;-60
2024/03/14 05:37:31;;;;;;;3.58;1.20;;;;;;;;;;5043395;28;20048;-61
2024/03/14 05:39:59;;;;;;;1.40;1.23;;;;;;;;;;5064067;28;20561;-60
2024/03/14 05:42:28;;;;;;;1.30;1.20;;;;;;;;;;5071251;28;20119;-60
2024/03/14 05:44:57;;;;;;;1.10;1.00;;;;;;;;;;5068779;28;20424;-60
2024/03/14 05:47:26;;;;;;;1.05;0.95;;;;;;;;;;5065098;28;20060;-64
2024/03/14 05:49:54;;;;;;;1.10;1.00;;;;;;;;;;5065394;28;20064;-61
2024/03/14 05:52:23;;;;;;;1.67;1.13;;;;;;;;;;5074317;28;20080;-62
2024/03/14 05:54:51;;;;;;;1.55;1.20;;;;;;;;;;5069166;28;20068;-62
2024/03/14 05:57:20;;;;;;;1.23;0.95;;;;;;;;;;5067504;28;20512;-60
2024/03/14 05:59:51;;;;;;;1.02;0.90;;;;;;;;;;5073215;28;20048;-61
2024/03/14 06:02:19;;;;;;;1.13;1.02;;;;;;;;;;5071193;28;20040;-60
2024/03/14 06:04:48;;;;;;;1.40;0.98;;;;;;;;;;5066661;28;20138;-62
2024/03/14 06:07:17;;;;;;;1.63;1.38;;;;;;;;;;5064743;28;20051;-61
2024/03/14 06:09:50;;;;;;;1.25;1.10;;;;;;;;;;5068287;28;20414;-60
2024/03/14 06:12:19;;;;;;;3.42;1.17;;;;;;;;;;5066933;28;20045;-61
2024/03/14 06:14:48;;;;;;;1.65;1.10;;;;;;;;;;5058651;28;20087;-60
2024/03/14 06:17:17;;;;;;;1.42;1.08;;;;;;;;;;5064246;28;20033;-61
2024/03/14 06:19:46;;;;;;;0.90;0.85;;;;;;;;;;5059111;28;20037;-60
2024/03/14 06:22:15;;;;;;;1.38;1.20;;;;;;;;;;5058714;28;20052;-60
2024/03/14 06:24:44;;;;;;;1.48;1.13;;;;;;;;;;5061690;28;20417;-62
2024/03/14 06:27:13;;;;;;;1.13;0.95;;;;;;;;;;5065203;28;20052;-62
2024/03/14 06:29:41;;;;;;;1.38;1.08;;;;;;;;;;5064569;28;20076;-61
2024/03/14 06:32:11;;;;;;;1.85;1.00;;;;;;;;;;5068491;28;20040;-60
2024/03/14 06:34:42;;;;;;;1.20;1.10;;;;;;;;;;5064307;28;20454;-62
2024/03/14 06:37:11;;;;;;;2.33;1.10;;;;;;;;;;5069092;28;20052;-60
2024/03/14 06:39:40;;;;;;;1.40;1.10;;;;;;;;;;5068322;28;20610;-62
2024/03/14 06:42:11;;;;;;;1.08;0.98;;;;;;;;;;5069075;28;20479;-60
2024/03/14 06:44:42;;;;;;;1.15;1.05;;;;;;;;;;5065736;28;20090;-61
2024/03/14 06:47:11;;;;;;;1.17;1.05;;;;;;;;;;5069010;28;20391;-60
2024/03/14 06:49:39;;;;;;;1.33;1.20;;;;;;;;;;5068994;28;20055;-61
2024/03/14 06:52:09;;;;;;;1.10;1.00;;;;;;;;;;5068719;28;20068;-61
2024/03/14 06:54:38;;;;;;;2.17;1.23;;;;;;;;;;5067088;28;20490;-62
2024/03/14 06:57:09;;;;;;;1.63;1.10;;;;;;;;;;5065910;28;20053;-60
2024/03/14 06:59:38;;;;;;;0.98;0.93;;;;;;;;;;5065366;28;20053;-60
2024/03/14 07:02:07;;;;;;;1.27;1.17;;;;;;;;;;5068077;28;20089;-62
2024/03/14 07:04:37;;;;;;;1.92;1.30;;;;;;;;;;5063861;28;20041;-62
2024/03/14 07:07:05;;;;;;;1.52;1.17;;;;;;;;;;5067982;28;20057;-61
2024/03/14 07:09:34;;;;;;;1.55;1.15;;;;;;;;;;5064936;28;20457;-60
2024/03/14 07:12:02;;;;;;;2.75;1.30;;;;;;;;;;5068327;28;20047;-60
2024/03/14 07:14:31;;;;;;;2.55;1.73;;;;;;;;;;5066721;28;20504;-60
2024/03/14 07:16:59;;;;;;;1.30;1.20;;;;;;;;;;5065201;28;20139;-62
2024/03/14 07:19:28;;;;;;;2.88;1.20;;;;;;;;;;5061413;28;20098;-61
2024/03/14 07:21:56;;;;;;;1.63;1.48;;;;;;;;;;5067639;28;20121;-60
2024/03/14 07:24:25;;;;;;;1.70;1.60;;;;;;;;;;5073767;28;20460;-60
2024/03/14 07:26:54;;;;;;;1.92;1.52;;;;;;;;;;5062918;28;20052;-60
2024/03/14 07:29:22;;;;;;;2.35;1.30;;;;;;;;;;5072881;28;20513;-61
2024/03/14 07:31:51;;;;;;;1.20;1.10;;;;;;;;;;5061922;28;20036;-60
2024/03/14 07:34:21;;;;;;;1.52;1.27;;;;;;;;;;5070860;28;20040;-62
2024/03/14 07:36:49;;;;;;;1.38;1.10;;;;;;;;;;5066483;28;20053;-60
2024/03/14 07:39:24;;;;;;;2.88;1.52;;;;;;;;;;5072462;28;20057;-61
2024/03/14 07:41:53;;;;;;;1.33;1.23;;;;;;;;;;5079806;28;20055;-62
2024/03/14 07:44:22;;;;;;;1.42;1.33;;;;;;;;;;5073867;28;20087;-61
2024/03/14 07:47:00;;;;;;;1.30;1.10;;;;;;;;;;5069935;28;20279;-62
2024/03/14 07:49:33;;;;;;;3.25;1.23;;;;;;;;;;5080939;28;20105;-60
2024/03/14 07:52:01;;;;;;;1.75;1.20;;;;;;;;;;5069610;28;20052;-61
2024/03/14 07:54:30;;;;;;;2.17;1.40;;;;;;;;;;5081530;28;20051;-61
2024/03/14 07:56:58;;;;;;;1.48;1.27;;;;;;;;;;5069972;28;20058;-61
2024/03/14 07:59:27;;;;;;;2.45;1.48;;;;;;;;;;5079568;28;20172;-61
2024/03/14 08:01:58;;;;;;;1.73;1.20;;;;;;;;;;5065873;28;20048;-61
2024/03/14 08:04:27;;;;;;;3.92;1.60;;;;;;;;;;5075193;28;20485;-61
2024/03/14 08:06:56;;;;;;;1.55;1.45;;;;;;;;;;5067094;28;20444;-63
2024/03/14 08:09:26;;;;;;;4.03;1.60;;;;;;;;;;5069618;28;20659;-61
2024/03/14 08:11:56;;;;;;;2.30;1.90;;;;;;;;;;5065489;28;20048;-64
2024/03/14 08:14:26;;;;;;;1.92;1.73;;;;;;;;;;5065713;28;20080;-61
2024/03/14 08:16:54;;;;;;;2.05;1.85;;;;;;;;;;5060651;28;20098;-63
2024/03/14 08:19:23;;;;;;;1.98;1.63;;;;;;;;;;5066607;28;20063;-62
2024/03/14 08:21:51;;;;;;;2.35;1.77;;;;;;;;;;5064284;28;20442;-61
2024/03/14 08:24:20;;;;;;;2.20;1.88;;;;;;;;;;5066154;28;20440;-61
2024/03/14 08:26:50;;;;;;;3.33;1.60;;;;;;;;;;5064861;28;20052;-61
2024/03/14 08:29:20;;;;;;;3.03;1.90;;;;;;;;;;5064108;28;20088;-61
2024/03/14 08:31:49;;;;;;;1.95;1.48;;;;;;;;;;5063392;28;20374;-63
2024/03/14 08:34:18;;;;;;;2.65;1.80;;;;;;;;;;5064868;28;20048;-64
2024/03/14 08:36:46;;;;;;;4.55;1.63;;;;;;;;;;5061941;28;20057;-61
2024/03/14 08:39:17;;;;;;;2.08;1.70;;;;;;;;;;5063070;28;20045;-61
2024/03/14 08:41:46;;;;;;;2.65;1.50;;;;;;;;;;5066639;28;20052;-62
2024/03/14 08:44:14;;;;;;;1.58;1.48;;;;;;;;;;5066727;28;20471;-61
2024/03/14 08:46:43;;;;;;;2.22;1.90;;;;;;;;;;5064609;28;20452;-60
2024/03/14 08:49:14;;;;;;;2.03;1.70;;;;;;;;;;5067629;28;20076;-60
2024/03/14 08:51:42;;;;;;;2.25;1.60;;;;;;;;;;5062291;28;20072;-61
2024/03/14 08:54:28;;;;;;;1.58;1.40;;;;;;;;;;5063235;28;20044;-63
2024/03/14 08:56:59;;;;;;;1.67;1.50;;;;;;;;;;5065049;28;20075;-61
2024/03/14 08:59:35;;;;;;;2.53;1.63;;;;;;;;;;5066753;28;20121;-61
2024/03/14 09:02:09;;;;;;;4.10;1.60;;;;;;;;;;5061686;28;20048;-61
2024/03/14 09:04:41;;;;;;;2.05;1.75;;;;;;;;;;5066359;28;20048;-61
2024/03/14 09:07:09;;;;;;;1.60;1.45;;;;;;;;;;5066826;28;20049;-60
2024/03/14 09:09:38;;;;;;;2.03;1.50;;;;;;;;;;5053544;28;20410;-61
2024/03/14 09:12:13;;;;;;;1.95;1.60;;;;;;;;;;5061319;28;20044;-60
2024/03/14 09:14:45;;;;;;;2.38;1.67;;;;;;;;;;5055887;28;20052;-59
2024/03/14 09:17:13;;;;;;;1.85;1.48;;;;;;;;;;5056813;28;20382;-60
2024/03/14 09:19:42;;;;;;;2.53;1.90;;;;;;;;;;5068657;28;20044;-60
2024/03/14 09:22:10;;;;;;;1.45;1.30;;;;;;;;;;5070318;28;20068;-59
2024/03/14 09:24:39;;;;;;;1.67;1.13;;;;;;;;;;5068760;28;20056;-60
2024/03/14 09:27:07;;;;;;;1.52;1.25;;;;;;;;;;5065329;28;20056;-60
2024/03/14 09:29:39;;;;;;;1.73;1.10;;;;;;;;;;5065017;28;20287;-60
2024/03/14 09:32:08;;;;;;;2.45;1.00;;;;;;;;;;5059252;28;20098;-60
2024/03/14 09:34:38;;;;;;;1.02;0.93;;;;;;;;;;5069930;28;20044;-58
2024/03/14 09:37:06;;;;;;;1.10;1.00;;;;;;;;;;5069482;28;20036;-59
2024/03/14 09:39:37;;;;;;;0.93;0.85;;;;;;;;;;5062777;28;20053;-61
2024/03/14 09:42:06;;;;;;;0.80;0.80;;;;;;;;;;5069972;28;20049;-59
2024/03/14 09:44:34;;;;;;;1.60;1.10;;;;;;;;;;5069109;28;20517;-60
2024/03/14 09:47:03;;;;;;;1.45;0.88;;;;;;;;;;5067824;28;20061;-59
2024/03/14 09:49:32;;;;;;;2.40;0.80;;;;;;;;;;5069047;28;20044;-59
2024/03/14 09:52:01;;;;;;;1.02;0.70;;;;;;;;;;5069089;28;20055;-60
2024/03/14 09:54:29;;;;;;;2.05;0.70;;;;;;;;;;5068001;28;20142;-61
2024/03/14 09:56:58;;;;;;;0.90;0.80;;;;;;;;;;5067535;28;20045;-62
2024/03/14 09:59:27;;;;;;;0.55;0.55;;;;;;;;;;5067330;28;20052;-59
2024/03/14 10:01:55;;;;;;;1.92;0.90;;;;;;;;;;5067592;28;20502;-61
2024/03/14 10:04:24;;;;;;;1.05;0.70;;;;;;;;;;5068138;28;20452;-60
2024/03/14 10:06:53;;;;;;;1.00;0.80;;;;;;;;;;5068358;28;20040;-61
2024/03/14 10:09:22;;;;;;;0.82;0.75;;;;;;;;;;5063816;28;20540;-60
2024/03/14 10:12:01;;;;;;;0.70;0.70;;;;;;;;;;5048907;28;20037;-61
2024/03/14 10:14:32;;;;;;;1.67;0.93;;;;;;;;;;5066767;28;20044;-60
2024/03/14 10:17:01;;;;;;;0.82;0.70;;;;;;;;;;5065734;28;20057;-61
2024/03/14 10:19:30;;;;;;;2.92;0.90;;;;;;;;;;5065134;28;20056;-60
2024/03/14 10:22:02;;;;;;;0.80;0.80;;;;;;;;;;5069035;28;20051;-61
2024/03/14 10:24:31;;;;;;;2.08;0.70;;;;;;;;;;5068949;28;20413;-61
2024/03/14 10:27:00;;;;;;;0.60;0.60;;;;;;;;;;5062901;28;20047;-61
2024/03/14 10:29:33;;;;;;;2.72;0.80;;;;;;;;;;5071601;28;20480;-61
2024/03/14 10:32:01;;;;;;;1.60;0.80;;;;;;;;;;5070107;28;20412;-62
2024/03/14 10:34:32;;;;;;;1.20;0.82;;;;;;;;;;5074750;28;20076;-61
2024/03/14 10:37:01;;;;;;;0.90;0.82;;;;;;;;;;5064353;28;20048;-62
2024/03/14 10:39:29;;;;;;;1.33;1.00;;;;;;;;;;5069461;28;20041;-62
2024/03/14 10:41:58;;;;;;;3.28;0.90;;;;;;;;;;5068522;28;20048;-62
2024/03/14 10:44:26;;;;;;;2.28;0.70;;;;;;;;;;5067900;28;20496;-62
2024/03/14 10:46:55;;;;;;;0.75;0.75;;;;;;;;;;5062499;28;20044;-62
2024/03/14 10:49:23;;;;;;;1.35;0.82;;;;;;;;;;5057936;28;20133;-62
2024/03/14 10:51:53;;;;;;;1.73;0.70;;;;;;;;;;5069187;28;20044;-62
2024/03/14 10:54:26;;;;;;;0.60;0.60;;;;;;;;;;5065361;28;20052;-61
2024/03/14 10:56:54;;;;;;;0.75;0.68;;;;;;;;;;5065317;28;20059;-63
2024/03/14 10:59:23;;;;;;;0.77;0.68;;;;;;;;;;5067628;28;20094;-61
2024/03/14 11:01:53;;;;;;;1.00;0.80;;;;;;;;;;5062112;28;20501;-62
2024/03/14 11:04:23;;;;;;;0.60;0.60;;;;;;;;;;5068126;28;20076;-63
2024/03/14 11:06:53;;;;;;;0.80;0.80;;;;;;;;;;5064190;28;20135;-62
2024/03/14 11:09:22;;;;;;;1.48;0.60;;;;;;;;;;5055992;28;20056;-63
2024/03/14 11:11:51;;;;;;;0.70;0.70;;;;;;;;;;5045514;28;20045;-61
2024/03/14 11:14:19;;;;;;;0.75;0.65;;;;;;;;;;5051925;28;20049;-63
2024/03/14 11:16:48;;;;;;;0.70;0.50;;;;;;;;;;5045357;28;20495;-62
2024/03/14 11:19:17;;;;;;;1.90;0.60;;;;;;;;;;5054089;28;20060;-63
2024/03/14 11:21:45;;;;;;;0.98;0.90;;;;;;;;;;5063629;28;20102;-62
2024/03/14 11:24:14;;;;;;;1.20;0.60;;;;;;;;;;5064573;28;20040;-63
2024/03/14 11:26:43;;;;;;;2.33;0.75;;;;;;;;;;5061132;28;20056;-61
2024/03/14 11:29:14;;;;;;;2.58;0.60;;;;;;;;;;5062956;28;20066;-62
2024/03/14 11:31:45;;;;;;;0.60;0.60;;;;;;;;;;5065558;28;20056;-62
2024/03/14 11:34:15;;;;;;;1.20;0.70;;;;;;;;;;5063283;28;20045;-65
2024/03/14 11:36:44;;;;;;;1.00;0.70;;;;;;;;;;5064569;28;20053;-64
2024/03/14 11:39:16;;;;;;;0.82;0.70;;;;;;;;;;5063800;28;20044;-62
2024/03/14 11:41:45;;;;;;;1.00;0.80;;;;;;;;;;5061286;28;20197;-63
2024/03/14 11:44:17;;;;;;;0.65;0.50;;;;;;;;;;5066401;28;20049;-64
2024/03/14 11:46:49;;;;;;;1.70;0.60;;;;;;;;;;5066284;28;20052;-62
2024/03/14 11:49:20;;;;;;;0.75;0.60;;;;;;;;;;5054341;28;20060;-62
2024/03/14 11:51:49;;;;;;;3.60;0.60;;;;;;;;;;5063304;28;20041;-62
2024/03/14 11:54:20;;;;;;;1.42;0.63;;;;;;;;;;5067150;28;20147;-63
2024/03/14 11:56:50;;;;;;;1.38;0.73;;;;;;;;;;5065946;28;20586;-64
2024/03/14 11:59:20;;;;;;;1.20;0.82;;;;;;;;;;5056669;28;20050;-64
2024/03/14 12:01:50;;;;;;;0.68;0.60;;;;;;;;;;5064749;28;20131;-61
2024/03/14 12:04:19;;;;;;;1.63;0.70;;;;;;;;;;5063526;28;20060;-62
2024/03/14 12:06:48;;;;;;;0.70;0.70;;;;;;;;;;5071389;28;20071;-63
2024/03/14 12:09:21;;;;;;;0.60;0.60;;;;;;;;;;5060329;28;20052;-62
2024/03/14 12:11:50;;;;;;;0.70;0.70;;;;;;;;;;5046546;28;20052;-61
2024/03/14 12:14:19;;;;;;;1.67;0.60;;;;;;;;;;5044953;28;20371;-61
2024/03/14 12:16:48;;;;;;;0.65;0.65;;;;;;;;;;5036078;28;20600;-63
2024/03/14 12:19:17;;;;;;;0.70;0.70;;;;;;;;;;5044591;28;20510;-64
2024/03/14 12:21:48;;;;;;;1.80;0.90;;;;;;;;;;5038976;28;20548;-63
2024/03/14 12:24:16;;;;;;;2.30;0.50;;;;;;;;;;5042517;28;20076;-62
2024/03/14 12:26:45;;;;;;;0.80;0.65;;;;;;;;;;5045650;28;20045;-62
2024/03/14 12:29:13;;;;;;;1.20;0.75;;;;;;;;;;5045627;28;20060;-63
2024/03/14 12:31:42;;;;;;;0.60;0.60;;;;;;;;;;5046068;28;20049;-62
2024/03/14 12:34:10;;;;;;;0.73;0.73;;;;;;;;;;5042740;28;20073;-63
2024/03/14 12:36:39;;;;;;;1.50;0.70;;;;;;;;;;5047772;28;20037;-63
2024/03/14 12:39:08;;;;;;;1.92;0.70;;;;;;;;;;5046379;28;20049;-62
2024/03/14 12:41:38;;;;;;;1.08;0.73;;;;;;;;;;5052293;28;20057;-63
2024/03/14 12:44:06;;;;;;;0.60;0.60;;;;;;;;;;5043936;28;20559;-63
2024/03/14 12:46:35;;;;;;;0.80;0.80;;;;;;;;;;5048445;28;20049;-64
2024/03/14 12:49:07;;;;;;;0.60;0.60;;;;;;;;;;5044909;28;20129;-62
2024/03/14 12:51:35;;;;;;;0.95;0.50;;;;;;;;;;5049644;28;20045;-62
2024/03/14 12:54:04;;;;;;;0.70;0.70;;;;;;;;;;5046691;28;20487;-63
2024/03/14 12:56:34;;;;;;;0.60;0.60;;;;;;;;;;5049859;28;20055;-62
2024/03/14 12:59:02;;;;;;;1.75;0.70;;;;;;;;;;5057785;28;20132;-64
2024/03/14 13:01:31;;;;;;;0.80;0.80;;;;;;;;;;5055378;28;20608;-64
2024/03/14 13:04:00;;;;;;;0.90;0.70;;;;;;;;;;5049002;28;20052;-61
2024/03/14 13:06:29;;;;;;;2.03;0.82;;;;;;;;;;5045677;28;20044;-62
2024/03/14 13:09:14;;;;;;;0.65;0.60;;;;;;;;;;5048370;28;20073;-63
2024/03/14 13:11:59;;;;;;;0.80;0.80;;;;;;;;;;5049022;28;20755;-62
2024/03/14 13:14:27;;;;;;;1.38;0.80;;;;;;;;;;5048137;28;20053;-62
2024/03/14 13:16:59;;;;;;;1.00;0.90;;;;;;;;;;5049842;28;20418;-61
2024/03/14 13:19:28;;;;;;;1.60;0.80;;;;;;;;;;5046719;28;20072;-62
2024/03/14 13:21:56;;;;;;;1.73;0.80;;;;;;;;;;5048276;28;20103;-62
2024/03/14 13:24:24;;;;;;;1.20;0.85;;;;;;;;;;5046984;28;20050;-61
2024/03/14 13:26:57;;;;;;;1.27;1.00;;;;;;;;;;5057382;28;20056;-65
2024/03/14 13:29:26;;;;;;;0.90;0.90;;;;;;;;;;5058383;28;20053;-64
2024/03/14 13:31:55;;;;;;;2.20;0.88;;;;;;;;;;5048964;28;20122;-63
2024/03/14 13:34:23;;;;;;;1.02;0.70;;;;;;;;;;5041341;28;20758;-65
2024/03/14 13:36:52;;;;;;;0.88;0.80;;;;;;;;;;5045563;28;20057;-62
2024/03/14 13:39:25;;;;;;;2.03;1.00;;;;;;;;;;5057633;28;20044;-63
2024/03/14 13:41:54;;;;;;;1.05;0.95;;;;;;;;;;5068910;28;20382;-64
2024/03/14 13:44:23;;;;;;;2.10;1.00;;;;;;;;;;5068221;28;20063;-63
2024/03/14 13:46:52;;;;;;;1.35;1.17;;;;;;;;;;5068279;28;20067;-64
2024/03/14 13:49:23;;;;;;;1.10;1.00;;;;;;;;;;5067638;28;20522;-62
2024/03/14 13:51:52;;;;;;;1.10;1.00;;;;;;;;;;5068040;28;20056;-62
2024/03/14 13:54:23;;;;;;;0.80;0.80;;;;;;;;;;5068984;28;20045;-63
2024/03/14 13:56:53;;;;;;;1.10;1.00;;;;;;;;;;5065287;28;20048;-65
2024/03/14 13:59:23;;;;;;;1.23;1.08;;;;;;;;;;5060826;28;20352;-64
2024/03/14 14:01:52;;;;;;;1.15;0.98;;;;;;;;;;5067976;28;20048;-62
2024/03/14 14:04:21;;;;;;;2.20;0.80;;;;;;;;;;5066638;28;20051;-64
2024/03/14 14:06:50;;;;;;;0.85;0.85;;;;;;;;;;5064932;28;20098;-66
2024/03/14 14:09:18;;;;;;;1.00;0.90;;;;;;;;;;5056938;28;20455;-63
2024/03/14 14:11:47;;;;;;;1.30;1.00;;;;;;;;;;5068323;28;20151;-63
2024/03/14 14:14:16;;;;;;;4.80;0.95;;;;;;;;;;5068628;28;20045;-62
2024/03/14 14:16:45;;;;;;;0.95;0.93;;;;;;;;;;5069758;28;20048;-63
2024/03/14 14:19:13;;;;;;;0.95;0.90;;;;;;;;;;5067347;28;20575;-63
2024/03/14 14:21:42;;;;;;;1.15;1.02;;;;;;;;;;5068569;28;20044;-63
2024/03/14 14:24:11;;;;;;;0.93;0.82;;;;;;;;;;5069810;28;20049;-63
2024/03/14 14:26:39;;;;;;;1.17;1.00;;;;;;;;;;5069325;28;20087;-62
2024/03/14 14:29:07;;;;;;;1.10;1.00;;;;;;;;;;5059734;28;20041;-62
2024/03/14 14:31:38;;;;;;;1.08;0.80;;;;;;;;;;5068888;28;20509;-63
2024/03/14 14:34:08;;;;;;;1.33;0.90;;;;;;;;;;5065002;28;20052;-63
2024/03/14 14:36:37;;;;;;;0.85;0.80;;;;;;;;;;5065679;28;20067;-63
2024/03/14 14:39:09;;;;;;;0.95;0.85;;;;;;;;;;5067899;28;20123;-62
2024/03/14 14:41:38;;;;;;;2.22;0.80;;;;;;;;;;5068533;28;20044;-64
2024/03/14 14:44:07;;;;;;;0.77;0.75;;;;;;;;;;5068528;28;20064;-64
2024/03/14 14:46:36;;;;;;;0.85;0.80;;;;;;;;;;5066443;28;20040;-63
2024/03/14 14:49:04;;;;;;;1.27;0.88;;;;;;;;;;5065968;28;20052;-64
2024/03/14 14:51:33;;;;;;;1.30;0.90;;;;;;;;;;5068767;28;20044;-62
2024/03/14 14:54:08;;;;;;;0.80;0.80;;;;;;;;;;5068191;28;20570;-63
2024/03/14 14:56:40;;;;;;;1.17;1.00;;;;;;;;;;5060746;28;20501;-65
2024/03/14 14:59:09;;;;;;;1.23;1.13;;;;;;;;;;5067456;28;20462;-64
2024/03/14 15:01:37;;;;;;;1.40;1.15;;;;;;;;;;5063009;28;20048;-62